sensor_id;sensor_type;location;lat;lon;timestamp;P1;durP1;ratioP1;P2;durP2;ratioP2
14060;SDS011;7105;43.616;1.434;2022-08-30T00:00:38;3.38;;;2.60;;
14060;SDS011;7105;43.616;1.434;2022-08-30T00:03:23;6.20;;;3.25;;
14060;SDS011;7105;43.616;1.434;2022-08-30T00:05:49;6.40;;;3.10;;
14060;SDS011;7105;43.616;1.434;2022-08-30T00:08:14;3.85;;;2.70;;
14060;SDS011;7105;43.616;1.434;2022-08-30T00:10:41;5.57;;;2.75;;
14060;SDS011;7105;43.616;1.434;2022-08-30T00:13:07;5.57;;;2.88;;
14060;SDS011;7105;43.616;1.434;2022-08-30T00:15:36;5.03;;;2.38;;
14060;SDS011;7105;43.616;1.434;2022-08-30T00:18:03;4.10;;;2.70;;
14060;SDS011;7105;43.616;1.434;2022-08-30T00:20:30;4.72;;;2.80;;
14060;SDS011;7105;43.616;1.434;2022-08-30T00:22:57;4.35;;;2.75;;
14060;SDS011;7105;43.616;1.434;2022-08-30T00:25:22;6.03;;;2.67;;
14060;SDS011;7105;43.616;1.434;2022-08-30T00:27:48;4.65;;;2.47;;
14060;SDS011;7105;43.616;1.434;2022-08-30T00:30:15;4.50;;;3.05;;
14060;SDS011;7105;43.616;1.434;2022-08-30T00:32:41;5.13;;;2.67;;
14060;SDS011;7105;43.616;1.434;2022-08-30T00:35:08;3.95;;;2.90;;
14060;SDS011;7105;43.616;1.434;2022-08-30T00:37:36;6.10;;;3.00;;
14060;SDS011;7105;43.616;1.434;2022-08-30T00:40:03;4.20;;;3.28;;
14060;SDS011;7105;43.616;1.434;2022-08-30T00:42:31;5.10;;;2.92;;
14060;SDS011;7105;43.616;1.434;2022-08-30T00:44:57;5.45;;;3.67;;
14060;SDS011;7105;43.616;1.434;2022-08-30T00:47:23;6.38;;;5.07;;
14060;SDS011;7105;43.616;1.434;2022-08-30T00:49:50;4.28;;;3.40;;
14060;SDS011;7105;43.616;1.434;2022-08-30T00:52:20;7.18;;;3.88;;
14060;SDS011;7105;43.616;1.434;2022-08-30T00:54:47;5.10;;;3.70;;
14060;SDS011;7105;43.616;1.434;2022-08-30T00:57:16;6.35;;;3.47;;
14060;SDS011;7105;43.616;1.434;2022-08-30T00:59:43;6.15;;;3.40;;
14060;SDS011;7105;43.616;1.434;2022-08-30T01:02:12;5.70;;;3.50;;
14060;SDS011;7105;43.616;1.434;2022-08-30T01:04:38;4.30;;;3.60;;
14060;SDS011;7105;43.616;1.434;2022-08-30T01:07:07;5.10;;;3.75;;
14060;SDS011;7105;43.616;1.434;2022-08-30T01:09:33;6.40;;;4.18;;
14060;SDS011;7105;43.616;1.434;2022-08-30T01:12:00;9.70;;;6.53;;
14060;SDS011;7105;43.616;1.434;2022-08-30T01:14:26;16.98;;;12.52;;
14060;SDS011;7105;43.616;1.434;2022-08-30T01:16:54;42.60;;;35.78;;
14060;SDS011;7105;43.616;1.434;2022-08-30T01:19:39;62.63;;;52.03;;
14060;SDS011;7105;43.616;1.434;2022-08-30T01:22:24;71.55;;;57.38;;
14060;SDS011;7105;43.616;1.434;2022-08-30T01:25:09;35.30;;;31.17;;
14060;SDS011;7105;43.616;1.434;2022-08-30T01:27:37;35.85;;;29.60;;
14060;SDS011;7105;43.616;1.434;2022-08-30T01:30:07;24.20;;;20.75;;
14060;SDS011;7105;43.616;1.434;2022-08-30T01:32:37;16.67;;;14.45;;
14060;SDS011;7105;43.616;1.434;2022-08-30T01:35:05;12.18;;;10.80;;
14060;SDS011;7105;43.616;1.434;2022-08-30T01:37:32;9.88;;;7.45;;
14060;SDS011;7105;43.616;1.434;2022-08-30T01:39:59;6.78;;;5.55;;
14060;SDS011;7105;43.616;1.434;2022-08-30T01:42:25;10.32;;;5.85;;
14060;SDS011;7105;43.616;1.434;2022-08-30T01:44:51;7.65;;;5.40;;
14060;SDS011;7105;43.616;1.434;2022-08-30T01:47:17;8.05;;;5.80;;
14060;SDS011;7105;43.616;1.434;2022-08-30T01:49:43;8.05;;;5.40;;
14060;SDS011;7105;43.616;1.434;2022-08-30T01:52:10;7.30;;;5.68;;
14060;SDS011;7105;43.616;1.434;2022-08-30T01:54:36;8.07;;;5.60;;
14060;SDS011;7105;43.616;1.434;2022-08-30T01:57:04;6.75;;;6.00;;
14060;SDS011;7105;43.616;1.434;2022-08-30T01:59:32;7.50;;;6.43;;
14060;SDS011;7105;43.616;1.434;2022-08-30T02:01:58;8.15;;;6.03;;
14060;SDS011;7105;43.616;1.434;2022-08-30T02:04:24;6.57;;;6.00;;
14060;SDS011;7105;43.616;1.434;2022-08-30T02:06:51;7.80;;;5.88;;
14060;SDS011;7105;43.616;1.434;2022-08-30T02:09:17;7.35;;;6.60;;
14060;SDS011;7105;43.616;1.434;2022-08-30T02:11:43;7.50;;;6.30;;
14060;SDS011;7105;43.616;1.434;2022-08-30T02:14:09;9.15;;;7.10;;
14060;SDS011;7105;43.616;1.434;2022-08-30T02:16:35;10.85;;;6.55;;
14060;SDS011;7105;43.616;1.434;2022-08-30T02:19:01;8.70;;;6.68;;
14060;SDS011;7105;43.616;1.434;2022-08-30T02:21:27;8.45;;;7.10;;
14060;SDS011;7105;43.616;1.434;2022-08-30T02:23:53;8.23;;;6.97;;
14060;SDS011;7105;43.616;1.434;2022-08-30T02:26:19;10.35;;;7.22;;
14060;SDS011;7105;43.616;1.434;2022-08-30T02:28:46;8.25;;;7.05;;
14060;SDS011;7105;43.616;1.434;2022-08-30T02:31:12;8.75;;;6.72;;
14060;SDS011;7105;43.616;1.434;2022-08-30T02:33:38;7.43;;;6.60;;
14060;SDS011;7105;43.616;1.434;2022-08-30T02:36:04;9.65;;;6.35;;
14060;SDS011;7105;43.616;1.434;2022-08-30T02:38:32;7.43;;;5.93;;
14060;SDS011;7105;43.616;1.434;2022-08-30T02:40:58;7.88;;;6.93;;
14060;SDS011;7105;43.616;1.434;2022-08-30T02:43:25;9.07;;;6.28;;
14060;SDS011;7105;43.616;1.434;2022-08-30T02:45:51;8.63;;;6.78;;
14060;SDS011;7105;43.616;1.434;2022-08-30T02:48:17;8.15;;;6.03;;
14060;SDS011;7105;43.616;1.434;2022-08-30T02:50:45;9.57;;;6.40;;
14060;SDS011;7105;43.616;1.434;2022-08-30T02:53:12;9.90;;;6.43;;
14060;SDS011;7105;43.616;1.434;2022-08-30T02:55:38;9.20;;;6.78;;
14060;SDS011;7105;43.616;1.434;2022-08-30T02:58:04;8.85;;;6.78;;
14060;SDS011;7105;43.616;1.434;2022-08-30T03:00:30;9.73;;;7.10;;
14060;SDS011;7105;43.616;1.434;2022-08-30T03:02:56;7.93;;;6.97;;
14060;SDS011;7105;43.616;1.434;2022-08-30T03:05:22;9.40;;;7.38;;
14060;SDS011;7105;43.616;1.434;2022-08-30T03:07:48;9.27;;;6.90;;
14060;SDS011;7105;43.616;1.434;2022-08-30T03:10:15;10.52;;;6.95;;
14060;SDS011;7105;43.616;1.434;2022-08-30T03:12:42;8.50;;;7.60;;
14060;SDS011;7105;43.616;1.434;2022-08-30T03:15:09;8.45;;;7.50;;
14060;SDS011;7105;43.616;1.434;2022-08-30T03:17:37;9.93;;;7.40;;
14060;SDS011;7105;43.616;1.434;2022-08-30T03:20:04;9.35;;;7.43;;
14060;SDS011;7105;43.616;1.434;2022-08-30T03:22:30;8.40;;;7.13;;
14060;SDS011;7105;43.616;1.434;2022-08-30T03:24:56;8.50;;;7.22;;
14060;SDS011;7105;43.616;1.434;2022-08-30T03:27:24;10.23;;;7.18;;
14060;SDS011;7105;43.616;1.434;2022-08-30T03:29:51;8.60;;;7.43;;
14060;SDS011;7105;43.616;1.434;2022-08-30T03:32:17;6.97;;;6.30;;
14060;SDS011;7105;43.616;1.434;2022-08-30T03:34:43;8.57;;;7.20;;
14060;SDS011;7105;43.616;1.434;2022-08-30T03:37:09;8.65;;;7.40;;
14060;SDS011;7105;43.616;1.434;2022-08-30T03:39:35;9.07;;;7.38;;
14060;SDS011;7105;43.616;1.434;2022-08-30T03:42:01;8.40;;;7.35;;
14060;SDS011;7105;43.616;1.434;2022-08-30T03:44:26;8.32;;;6.80;;
14060;SDS011;7105;43.616;1.434;2022-08-30T03:46:52;10.65;;;7.72;;
14060;SDS011;7105;43.616;1.434;2022-08-30T03:49:19;11.30;;;7.32;;
14060;SDS011;7105;43.616;1.434;2022-08-30T03:51:45;8.27;;;7.05;;
14060;SDS011;7105;43.616;1.434;2022-08-30T03:54:12;9.98;;;7.72;;
14060;SDS011;7105;43.616;1.434;2022-08-30T03:56:38;9.48;;;6.95;;
14060;SDS011;7105;43.616;1.434;2022-08-30T03:59:04;8.68;;;7.20;;
14060;SDS011;7105;43.616;1.434;2022-08-30T04:01:30;9.10;;;6.82;;
14060;SDS011;7105;43.616;1.434;2022-08-30T04:03:56;9.57;;;7.22;;
14060;SDS011;7105;43.616;1.434;2022-08-30T04:06:22;8.48;;;7.50;;
14060;SDS011;7105;43.616;1.434;2022-08-30T04:08:48;8.43;;;7.43;;
14060;SDS011;7105;43.616;1.434;2022-08-30T04:11:14;10.75;;;8.07;;
14060;SDS011;7105;43.616;1.434;2022-08-30T04:13:40;10.52;;;7.05;;
14060;SDS011;7105;43.616;1.434;2022-08-30T04:16:09;8.40;;;7.50;;
14060;SDS011;7105;43.616;1.434;2022-08-30T04:18:35;10.80;;;7.45;;
14060;SDS011;7105;43.616;1.434;2022-08-30T04:21:01;10.20;;;8.18;;
14060;SDS011;7105;43.616;1.434;2022-08-30T04:23:28;8.77;;;7.72;;
14060;SDS011;7105;43.616;1.434;2022-08-30T04:25:54;10.05;;;7.38;;
14060;SDS011;7105;43.616;1.434;2022-08-30T04:28:20;10.45;;;7.45;;
14060;SDS011;7105;43.616;1.434;2022-08-30T04:30:47;12.05;;;7.80;;
14060;SDS011;7105;43.616;1.434;2022-08-30T04:33:13;10.68;;;7.55;;
14060;SDS011;7105;43.616;1.434;2022-08-30T04:35:41;8.38;;;7.50;;
14060;SDS011;7105;43.616;1.434;2022-08-30T04:38:08;9.02;;;7.40;;
14060;SDS011;7105;43.616;1.434;2022-08-30T04:40:34;10.27;;;7.60;;
14060;SDS011;7105;43.616;1.434;2022-08-30T04:43:01;8.75;;;7.75;;
14060;SDS011;7105;43.616;1.434;2022-08-30T04:45:27;12.52;;;7.30;;
14060;SDS011;7105;43.616;1.434;2022-08-30T04:47:53;12.05;;;7.53;;
14060;SDS011;7105;43.616;1.434;2022-08-30T04:50:19;9.18;;;7.65;;
14060;SDS011;7105;43.616;1.434;2022-08-30T04:52:46;9.10;;;7.45;;
14060;SDS011;7105;43.616;1.434;2022-08-30T04:55:12;8.73;;;7.75;;
14060;SDS011;7105;43.616;1.434;2022-08-30T04:57:38;10.85;;;7.63;;
14060;SDS011;7105;43.616;1.434;2022-08-30T05:00:06;8.82;;;7.80;;
14060;SDS011;7105;43.616;1.434;2022-08-30T05:02:35;10.23;;;8.00;;
14060;SDS011;7105;43.616;1.434;2022-08-30T05:05:01;11.48;;;8.30;;
14060;SDS011;7105;43.616;1.434;2022-08-30T05:07:45;8.88;;;7.47;;
14060;SDS011;7105;43.616;1.434;2022-08-30T05:10:11;10.30;;;7.63;;
14060;SDS011;7105;43.616;1.434;2022-08-30T05:12:36;9.15;;;7.60;;
14060;SDS011;7105;43.616;1.434;2022-08-30T05:15:03;9.13;;;7.55;;
14060;SDS011;7105;43.616;1.434;2022-08-30T05:17:28;8.70;;;7.05;;
14060;SDS011;7105;43.616;1.434;2022-08-30T05:19:54;9.38;;;8.15;;
14060;SDS011;7105;43.616;1.434;2022-08-30T05:22:20;10.35;;;7.82;;
14060;SDS011;7105;43.616;1.434;2022-08-30T05:24:45;12.13;;;7.60;;
14060;SDS011;7105;43.616;1.434;2022-08-30T05:27:11;11.25;;;7.53;;
14060;SDS011;7105;43.616;1.434;2022-08-30T05:29:37;13.75;;;8.55;;
14060;SDS011;7105;43.616;1.434;2022-08-30T05:32:02;10.57;;;8.18;;
14060;SDS011;7105;43.616;1.434;2022-08-30T05:34:28;9.48;;;7.60;;
14060;SDS011;7105;43.616;1.434;2022-08-30T05:36:54;9.30;;;7.63;;
14060;SDS011;7105;43.616;1.434;2022-08-30T05:39:20;9.25;;;7.25;;
14060;SDS011;7105;43.616;1.434;2022-08-30T05:41:46;10.93;;;7.40;;
14060;SDS011;7105;43.616;1.434;2022-08-30T05:44:11;10.60;;;8.63;;
14060;SDS011;7105;43.616;1.434;2022-08-30T05:46:37;10.70;;;8.32;;
14060;SDS011;7105;43.616;1.434;2022-08-30T05:49:05;8.82;;;7.82;;
14060;SDS011;7105;43.616;1.434;2022-08-30T05:51:32;10.88;;;8.55;;
14060;SDS011;7105;43.616;1.434;2022-08-30T05:54:00;12.38;;;8.43;;
14060;SDS011;7105;43.616;1.434;2022-08-30T05:56:28;8.77;;;7.93;;
14060;SDS011;7105;43.616;1.434;2022-08-30T05:58:55;10.07;;;7.75;;
14060;SDS011;7105;43.616;1.434;2022-08-30T06:01:32;12.52;;;7.00;;
14060;SDS011;7105;43.616;1.434;2022-08-30T06:04:01;10.23;;;6.57;;
14060;SDS011;7105;43.616;1.434;2022-08-30T06:06:28;8.93;;;6.53;;
14060;SDS011;7105;43.616;1.434;2022-08-30T06:08:54;7.22;;;6.03;;
14060;SDS011;7105;43.616;1.434;2022-08-30T06:11:21;9.38;;;6.55;;
14060;SDS011;7105;43.616;1.434;2022-08-30T06:13:49;7.43;;;5.88;;
14060;SDS011;7105;43.616;1.434;2022-08-30T06:16:18;8.95;;;5.65;;
14060;SDS011;7105;43.616;1.434;2022-08-30T06:18:46;8.80;;;5.95;;
14060;SDS011;7105;43.616;1.434;2022-08-30T06:21:18;9.68;;;6.53;;
14060;SDS011;7105;43.616;1.434;2022-08-30T06:23:49;8.52;;;6.10;;
14060;SDS011;7105;43.616;1.434;2022-08-30T06:26:15;8.18;;;5.57;;
14060;SDS011;7105;43.616;1.434;2022-08-30T06:28:41;9.38;;;5.85;;
14060;SDS011;7105;43.616;1.434;2022-08-30T06:31:08;7.47;;;5.53;;
14060;SDS011;7105;43.616;1.434;2022-08-30T06:33:35;9.35;;;6.00;;
14060;SDS011;7105;43.616;1.434;2022-08-30T06:36:04;8.27;;;5.93;;
14060;SDS011;7105;43.616;1.434;2022-08-30T06:38:32;11.32;;;5.95;;
14060;SDS011;7105;43.616;1.434;2022-08-30T06:40:59;9.20;;;6.00;;
14060;SDS011;7105;43.616;1.434;2022-08-30T06:43:24;8.20;;;5.18;;
14060;SDS011;7105;43.616;1.434;2022-08-30T06:45:50;10.00;;;5.53;;
14060;SDS011;7105;43.616;1.434;2022-08-30T06:48:16;9.70;;;5.70;;
14060;SDS011;7105;43.616;1.434;2022-08-30T06:50:41;6.85;;;5.38;;
14060;SDS011;7105;43.616;1.434;2022-08-30T06:53:08;10.13;;;5.32;;
14060;SDS011;7105;43.616;1.434;2022-08-30T06:55:34;10.00;;;5.20;;
14060;SDS011;7105;43.616;1.434;2022-08-30T06:58:01;8.80;;;6.40;;
14060;SDS011;7105;43.616;1.434;2022-08-30T07:00:27;8.23;;;5.82;;
14060;SDS011;7105;43.616;1.434;2022-08-30T07:02:53;10.38;;;5.70;;
14060;SDS011;7105;43.616;1.434;2022-08-30T07:05:19;9.90;;;5.75;;
14060;SDS011;7105;43.616;1.434;2022-08-30T07:07:49;9.07;;;5.57;;
14060;SDS011;7105;43.616;1.434;2022-08-30T07:10:17;13.45;;;5.90;;
14060;SDS011;7105;43.616;1.434;2022-08-30T07:12:45;9.88;;;5.57;;
14060;SDS011;7105;43.616;1.434;2022-08-30T07:15:11;9.60;;;5.15;;
14060;SDS011;7105;43.616;1.434;2022-08-30T07:17:37;8.57;;;5.40;;
14060;SDS011;7105;43.616;1.434;2022-08-30T07:20:22;11.07;;;5.53;;
14060;SDS011;7105;43.616;1.434;2022-08-30T07:22:47;10.18;;;4.68;;
14060;SDS011;7105;43.616;1.434;2022-08-30T07:25:13;12.05;;;4.88;;
14060;SDS011;7105;43.616;1.434;2022-08-30T07:27:39;7.93;;;4.70;;
14060;SDS011;7105;43.616;1.434;2022-08-30T07:30:06;8.32;;;5.15;;
14060;SDS011;7105;43.616;1.434;2022-08-30T07:32:32;7.25;;;5.07;;
14060;SDS011;7105;43.616;1.434;2022-08-30T07:34:58;7.55;;;4.90;;
14060;SDS011;7105;43.616;1.434;2022-08-30T07:37:24;8.48;;;5.10;;
14060;SDS011;7105;43.616;1.434;2022-08-30T07:39:50;5.85;;;4.30;;
14060;SDS011;7105;43.616;1.434;2022-08-30T07:42:16;6.40;;;4.15;;
14060;SDS011;7105;43.616;1.434;2022-08-30T07:44:42;6.80;;;4.10;;
14060;SDS011;7105;43.616;1.434;2022-08-30T07:47:08;8.90;;;4.22;;
14060;SDS011;7105;43.616;1.434;2022-08-30T07:49:35;9.90;;;4.03;;
14060;SDS011;7105;43.616;1.434;2022-08-30T07:52:01;9.93;;;4.75;;
14060;SDS011;7105;43.616;1.434;2022-08-30T07:54:28;7.07;;;3.25;;
14060;SDS011;7105;43.616;1.434;2022-08-30T07:56:53;7.72;;;3.05;;
14060;SDS011;7105;43.616;1.434;2022-08-30T07:59:20;3.35;;;2.65;;
14060;SDS011;7105;43.616;1.434;2022-08-30T08:01:46;5.55;;;3.13;;
14060;SDS011;7105;43.616;1.434;2022-08-30T08:04:12;4.07;;;2.95;;
14060;SDS011;7105;43.616;1.434;2022-08-30T08:06:38;5.93;;;3.90;;
14060;SDS011;7105;43.616;1.434;2022-08-30T08:09:04;8.38;;;4.22;;
14060;SDS011;7105;43.616;1.434;2022-08-30T08:11:31;4.65;;;2.67;;
14060;SDS011;7105;43.616;1.434;2022-08-30T08:13:59;5.55;;;3.17;;
14060;SDS011;7105;43.616;1.434;2022-08-30T08:16:26;6.95;;;2.50;;
14060;SDS011;7105;43.616;1.434;2022-08-30T08:18:54;4.88;;;2.63;;
14060;SDS011;7105;43.616;1.434;2022-08-30T08:21:22;4.07;;;2.47;;
14060;SDS011;7105;43.616;1.434;2022-08-30T08:23:48;5.50;;;2.75;;
14060;SDS011;7105;43.616;1.434;2022-08-30T08:26:15;5.05;;;3.08;;
14060;SDS011;7105;43.616;1.434;2022-08-30T08:28:40;6.22;;;3.10;;
14060;SDS011;7105;43.616;1.434;2022-08-30T08:31:20;8.02;;;3.25;;
14060;SDS011;7105;43.616;1.434;2022-08-30T08:33:47;4.50;;;2.90;;
14060;SDS011;7105;43.616;1.434;2022-08-30T08:36:13;7.57;;;2.80;;
14060;SDS011;7105;43.616;1.434;2022-08-30T08:38:39;5.85;;;3.22;;
14060;SDS011;7105;43.616;1.434;2022-08-30T08:41:09;8.07;;;3.30;;
14060;SDS011;7105;43.616;1.434;2022-08-30T08:43:36;7.85;;;3.22;;
14060;SDS011;7105;43.616;1.434;2022-08-30T08:48:47;6.10;;;3.03;;
14060;SDS011;7105;43.616;1.434;2022-08-30T08:51:17;10.73;;;3.42;;
14060;SDS011;7105;43.616;1.434;2022-08-30T08:54:10;6.10;;;3.20;;
14060;SDS011;7105;43.616;1.434;2022-08-30T08:56:43;6.43;;;3.45;;
14060;SDS011;7105;43.616;1.434;2022-08-30T08:59:09;5.18;;;3.25;;
14060;SDS011;7105;43.616;1.434;2022-08-30T09:01:37;5.85;;;2.88;;
14060;SDS011;7105;43.616;1.434;2022-08-30T09:04:14;7.55;;;3.08;;
14060;SDS011;7105;43.616;1.434;2022-08-30T09:09:36;9.88;;;3.47;;
14060;SDS011;7105;43.616;1.434;2022-08-30T09:12:05;6.28;;;3.20;;
14060;SDS011;7105;43.616;1.434;2022-08-30T09:14:37;6.35;;;3.35;;
14060;SDS011;7105;43.616;1.434;2022-08-30T09:17:07;7.63;;;3.40;;
14060;SDS011;7105;43.616;1.434;2022-08-30T09:22:39;5.32;;;3.20;;
14060;SDS011;7105;43.616;1.434;2022-08-30T09:25:08;5.57;;;3.08;;
14060;SDS011;7105;43.616;1.434;2022-08-30T09:27:44;7.03;;;3.00;;
14060;SDS011;7105;43.616;1.434;2022-08-30T09:32:54;10.15;;;3.58;;
14060;SDS011;7105;43.616;1.434;2022-08-30T09:35:31;7.70;;;3.65;;
14060;SDS011;7105;43.616;1.434;2022-08-30T09:38:11;7.05;;;3.45;;
14060;SDS011;7105;43.616;1.434;2022-08-30T09:40:43;7.38;;;3.47;;
14060;SDS011;7105;43.616;1.434;2022-08-30T09:48:38;9.55;;;3.22;;
14060;SDS011;7105;43.616;1.434;2022-08-30T09:56:32;10.38;;;3.60;;
14060;SDS011;7105;43.616;1.434;2022-08-30T10:02:03;9.85;;;3.10;;
14060;SDS011;7105;43.616;1.434;2022-08-30T10:07:57;7.82;;;3.20;;
14060;SDS011;7105;43.616;1.434;2022-08-30T10:16:20;6.40;;;3.33;;
14060;SDS011;7105;43.616;1.434;2022-08-30T10:21:58;5.47;;;3.40;;
14060;SDS011;7105;43.616;1.434;2022-08-30T10:24:35;5.75;;;3.10;;
14060;SDS011;7105;43.616;1.434;2022-08-30T10:27:08;4.90;;;3.60;;
14060;SDS011;7105;43.616;1.434;2022-08-30T10:29:46;6.43;;;3.80;;
14060;SDS011;7105;43.616;1.434;2022-08-30T10:32:38;8.27;;;3.90;;
14060;SDS011;7105;43.616;1.434;2022-08-30T10:35:32;10.45;;;4.35;;
14060;SDS011;7105;43.616;1.434;2022-08-30T10:38:07;4.93;;;3.60;;
14060;SDS011;7105;43.616;1.434;2022-08-30T10:41:40;6.53;;;3.88;;
14060;SDS011;7105;43.616;1.434;2022-08-30T10:46:32;9.02;;;3.85;;
14060;SDS011;7105;43.616;1.434;2022-08-30T10:49:00;6.30;;;3.47;;
14060;SDS011;7105;43.616;1.434;2022-08-30T10:51:30;6.60;;;4.03;;
14060;SDS011;7105;43.616;1.434;2022-08-30T10:54:03;7.93;;;3.70;;
14060;SDS011;7105;43.616;1.434;2022-08-30T10:56:33;5.88;;;3.92;;
14060;SDS011;7105;43.616;1.434;2022-08-30T10:59:02;9.07;;;3.80;;
14060;SDS011;7105;43.616;1.434;2022-08-30T11:01:33;7.65;;;4.00;;
14060;SDS011;7105;43.616;1.434;2022-08-30T11:12:34;7.13;;;3.83;;
14060;SDS011;7105;43.616;1.434;2022-08-30T11:15:23;11.00;;;4.05;;
14060;SDS011;7105;43.616;1.434;2022-08-30T11:17:56;9.48;;;3.80;;
14060;SDS011;7105;43.616;1.434;2022-08-30T11:33:39;10.32;;;4.10;;
14060;SDS011;7105;43.616;1.434;2022-08-30T11:41:38;8.52;;;4.00;;
14060;SDS011;7105;43.616;1.434;2022-08-30T11:44:37;14.98;;;4.68;;
14060;SDS011;7105;43.616;1.434;2022-08-30T11:46:57;8.48;;;4.20;;
14060;SDS011;7105;43.616;1.434;2022-08-30T12:03:05;8.00;;;3.88;;
14060;SDS011;7105;43.616;1.434;2022-08-30T12:08:02;7.30;;;4.40;;
14060;SDS011;7105;43.616;1.434;2022-08-30T12:10:44;8.45;;;4.50;;
14060;SDS011;7105;43.616;1.434;2022-08-30T12:18:30;9.80;;;4.43;;
14060;SDS011;7105;43.616;1.434;2022-08-30T12:29:31;9.52;;;4.00;;
14060;SDS011;7105;43.616;1.434;2022-08-30T12:31:52;11.57;;;4.70;;
14060;SDS011;7105;43.616;1.434;2022-08-30T12:34:22;8.02;;;4.00;;
14060;SDS011;7105;43.616;1.434;2022-08-30T12:37:22;7.85;;;3.78;;
14060;SDS011;7105;43.616;1.434;2022-08-30T12:42:36;8.55;;;3.55;;
14060;SDS011;7105;43.616;1.434;2022-08-30T12:45:15;6.88;;;3.75;;
14060;SDS011;7105;43.616;1.434;2022-08-30T12:48:07;6.85;;;3.80;;
14060;SDS011;7105;43.616;1.434;2022-08-30T12:50:45;6.43;;;3.85;;
14060;SDS011;7105;43.616;1.434;2022-08-30T12:53:22;6.60;;;4.10;;
14060;SDS011;7105;43.616;1.434;2022-08-30T12:56:11;7.15;;;4.28;;
14060;SDS011;7105;43.616;1.434;2022-08-30T12:58:40;5.28;;;4.38;;
14060;SDS011;7105;43.616;1.434;2022-08-30T13:01:25;8.95;;;4.32;;
14060;SDS011;7105;43.616;1.434;2022-08-30T13:06:34;10.55;;;4.72;;
14060;SDS011;7105;43.616;1.434;2022-08-30T13:09:06;12.73;;;4.68;;
14060;SDS011;7105;43.616;1.434;2022-08-30T13:11:32;10.63;;;5.13;;
14060;SDS011;7105;43.616;1.434;2022-08-30T13:16:45;9.57;;;4.63;;
14060;SDS011;7105;43.616;1.434;2022-08-30T13:21:57;7.95;;;4.75;;
14060;SDS011;7105;43.616;1.434;2022-08-30T13:24:24;9.90;;;4.90;;
14060;SDS011;7105;43.616;1.434;2022-08-30T13:26:55;6.07;;;4.72;;
14060;SDS011;7105;43.616;1.434;2022-08-30T13:29:26;7.50;;;4.95;;
14060;SDS011;7105;43.616;1.434;2022-08-30T13:31:53;11.45;;;5.30;;
14060;SDS011;7105;43.616;1.434;2022-08-30T13:34:19;10.68;;;5.43;;
14060;SDS011;7105;43.616;1.434;2022-08-30T13:36:53;8.65;;;4.90;;
14060;SDS011;7105;43.616;1.434;2022-08-30T13:39:20;6.90;;;4.95;;
14060;SDS011;7105;43.616;1.434;2022-08-30T13:41:46;23.95;;;5.43;;
14060;SDS011;7105;43.616;1.434;2022-08-30T13:44:12;18.20;;;5.07;;
14060;SDS011;7105;43.616;1.434;2022-08-30T13:46:39;6.05;;;4.13;;
14060;SDS011;7105;43.616;1.434;2022-08-30T13:49:09;7.38;;;4.50;;
14060;SDS011;7105;43.616;1.434;2022-08-30T13:51:41;6.72;;;4.05;;
14060;SDS011;7105;43.616;1.434;2022-08-30T13:54:07;8.27;;;4.40;;
14060;SDS011;7105;43.616;1.434;2022-08-30T13:56:32;7.10;;;4.65;;
14060;SDS011;7105;43.616;1.434;2022-08-30T13:58:58;8.57;;;5.18;;
14060;SDS011;7105;43.616;1.434;2022-08-30T14:01:25;12.32;;;4.43;;
14060;SDS011;7105;43.616;1.434;2022-08-30T14:03:51;8.32;;;4.47;;
14060;SDS011;7105;43.616;1.434;2022-08-30T14:06:17;7.65;;;3.88;;
14060;SDS011;7105;43.616;1.434;2022-08-30T14:08:43;5.35;;;3.60;;
14060;SDS011;7105;43.616;1.434;2022-08-30T14:11:09;6.22;;;3.65;;
14060;SDS011;7105;43.616;1.434;2022-08-30T14:13:36;11.07;;;4.30;;
14060;SDS011;7105;43.616;1.434;2022-08-30T14:16:03;8.30;;;3.85;;
14060;SDS011;7105;43.616;1.434;2022-08-30T14:18:31;6.10;;;4.30;;
14060;SDS011;7105;43.616;1.434;2022-08-30T14:20:57;6.15;;;3.95;;
14060;SDS011;7105;43.616;1.434;2022-08-30T14:23:24;6.57;;;3.90;;
14060;SDS011;7105;43.616;1.434;2022-08-30T14:25:51;8.75;;;3.60;;
14060;SDS011;7105;43.616;1.434;2022-08-30T14:28:17;4.53;;;3.03;;
14060;SDS011;7105;43.616;1.434;2022-08-30T14:30:43;9.63;;;3.53;;
14060;SDS011;7105;43.616;1.434;2022-08-30T14:33:09;6.13;;;3.00;;
14060;SDS011;7105;43.616;1.434;2022-08-30T14:35:35;5.85;;;2.85;;
14060;SDS011;7105;43.616;1.434;2022-08-30T14:38:00;7.15;;;3.47;;
14060;SDS011;7105;43.616;1.434;2022-08-30T14:40:26;6.45;;;3.08;;
14060;SDS011;7105;43.616;1.434;2022-08-30T14:42:52;5.45;;;3.63;;
14060;SDS011;7105;43.616;1.434;2022-08-30T14:45:17;5.60;;;3.30;;
14060;SDS011;7105;43.616;1.434;2022-08-30T14:47:43;6.13;;;3.03;;
14060;SDS011;7105;43.616;1.434;2022-08-30T14:50:09;6.80;;;2.85;;
14060;SDS011;7105;43.616;1.434;2022-08-30T14:52:35;4.78;;;2.92;;
14060;SDS011;7105;43.616;1.434;2022-08-30T14:55:01;5.82;;;2.58;;
14060;SDS011;7105;43.616;1.434;2022-08-30T14:57:28;7.88;;;2.83;;
14060;SDS011;7105;43.616;1.434;2022-08-30T14:59:54;5.10;;;2.70;;
14060;SDS011;7105;43.616;1.434;2022-08-30T15:02:20;6.03;;;2.78;;
14060;SDS011;7105;43.616;1.434;2022-08-30T15:04:45;7.55;;;3.30;;
14060;SDS011;7105;43.616;1.434;2022-08-30T15:07:11;6.82;;;3.17;;
14060;SDS011;7105;43.616;1.434;2022-08-30T15:09:37;5.63;;;3.17;;
14060;SDS011;7105;43.616;1.434;2022-08-30T15:12:02;8.57;;;3.20;;
14060;SDS011;7105;43.616;1.434;2022-08-30T15:14:29;5.70;;;3.38;;
14060;SDS011;7105;43.616;1.434;2022-08-30T15:16:56;6.13;;;3.30;;
14060;SDS011;7105;43.616;1.434;2022-08-30T15:19:23;9.07;;;3.65;;
14060;SDS011;7105;43.616;1.434;2022-08-30T15:21:50;8.18;;;3.30;;
14060;SDS011;7105;43.616;1.434;2022-08-30T15:24:17;6.60;;;3.40;;
14060;SDS011;7105;43.616;1.434;2022-08-30T15:26:47;8.50;;;3.53;;
14060;SDS011;7105;43.616;1.434;2022-08-30T15:29:14;6.72;;;3.40;;
14060;SDS011;7105;43.616;1.434;2022-08-30T15:31:42;8.30;;;3.55;;
14060;SDS011;7105;43.616;1.434;2022-08-30T15:34:10;4.72;;;3.35;;
14060;SDS011;7105;43.616;1.434;2022-08-30T15:36:38;7.80;;;3.22;;
14060;SDS011;7105;43.616;1.434;2022-08-30T15:39:05;11.63;;;3.65;;
14060;SDS011;7105;43.616;1.434;2022-08-30T15:41:32;5.75;;;3.00;;
14060;SDS011;7105;43.616;1.434;2022-08-30T15:43:59;6.70;;;2.97;;
14060;SDS011;7105;43.616;1.434;2022-08-30T15:46:26;5.07;;;2.60;;
14060;SDS011;7105;43.616;1.434;2022-08-30T15:48:57;5.20;;;2.95;;
14060;SDS011;7105;43.616;1.434;2022-08-30T15:51:25;4.43;;;2.58;;
14060;SDS011;7105;43.616;1.434;2022-08-30T15:53:51;9.10;;;2.85;;
14060;SDS011;7105;43.616;1.434;2022-08-30T15:56:17;6.10;;;3.00;;
14060;SDS011;7105;43.616;1.434;2022-08-30T15:58:43;7.50;;;3.17;;
14060;SDS011;7105;43.616;1.434;2022-08-30T16:01:09;7.30;;;2.85;;
14060;SDS011;7105;43.616;1.434;2022-08-30T16:03:36;6.88;;;2.97;;
14060;SDS011;7105;43.616;1.434;2022-08-30T16:06:08;7.63;;;3.90;;
14060;SDS011;7105;43.616;1.434;2022-08-30T16:08:36;9.43;;;3.47;;
14060;SDS011;7105;43.616;1.434;2022-08-30T16:11:03;5.90;;;3.55;;
14060;SDS011;7105;43.616;1.434;2022-08-30T16:13:30;7.82;;;3.40;;
14060;SDS011;7105;43.616;1.434;2022-08-30T16:15:58;8.93;;;3.40;;
14060;SDS011;7105;43.616;1.434;2022-08-30T16:18:25;4.97;;;3.10;;
14060;SDS011;7105;43.616;1.434;2022-08-30T16:20:56;8.20;;;3.33;;
14060;SDS011;7105;43.616;1.434;2022-08-30T16:23:26;4.97;;;3.33;;
14060;SDS011;7105;43.616;1.434;2022-08-30T16:25:51;5.97;;;3.30;;
14060;SDS011;7105;43.616;1.434;2022-08-30T16:28:17;6.78;;;3.10;;
14060;SDS011;7105;43.616;1.434;2022-08-30T16:30:43;8.20;;;3.63;;
14060;SDS011;7105;43.616;1.434;2022-08-30T16:33:08;8.35;;;3.42;;
14060;SDS011;7105;43.616;1.434;2022-08-30T16:35:34;7.25;;;3.45;;
14060;SDS011;7105;43.616;1.434;2022-08-30T16:37:59;5.78;;;3.30;;
14060;SDS011;7105;43.616;1.434;2022-08-30T16:40:25;4.07;;;3.05;;
14060;SDS011;7105;43.616;1.434;2022-08-30T16:42:52;5.18;;;2.90;;
14060;SDS011;7105;43.616;1.434;2022-08-30T16:45:18;5.40;;;2.90;;
14060;SDS011;7105;43.616;1.434;2022-08-30T16:47:44;7.22;;;3.20;;
14060;SDS011;7105;43.616;1.434;2022-08-30T16:50:09;7.03;;;3.13;;
14060;SDS011;7105;43.616;1.434;2022-08-30T16:52:36;5.50;;;3.17;;